createdAt,value
2023-02-01T00:00:54.185Z,24.57
2023-02-01T00:03:21.728Z,24.13
2023-02-01T00:05:56.802Z,23.85
2023-02-01T00:08:24.460Z,23.98
2023-02-01T00:11:01.355Z,23.93
2023-02-01T00:13:30.778Z,23.80
2023-02-01T00:16:04.949Z,23.69
2023-02-01T00:18:32.558Z,23.39
2023-02-01T00:21:00.331Z,23.40
2023-02-01T00:23:28.148Z,23.67
2023-02-01T00:25:55.674Z,23.79
2023-02-01T00:28:24.773Z,23.47
2023-02-01T00:30:57.867Z,23.53
2023-02-01T00:33:25.711Z,23.82
2023-02-01T00:35:58.139Z,23.59
2023-02-01T00:38:26.198Z,23.52
2023-02-01T00:40:53.810Z,23.69
2023-02-01T00:43:21.731Z,23.23
2023-02-01T00:45:50.658Z,23.77
2023-02-01T00:48:18.148Z,23.67
2023-02-01T00:50:45.913Z,23.61
2023-02-01T00:53:13.423Z,23.62
2023-02-01T00:55:41.165Z,23.64
2023-02-01T00:58:08.725Z,23.40
2023-02-01T01:00:36.745Z,23.64
2023-02-01T01:03:06.097Z,23.36
2023-02-01T01:05:33.549Z,23.03
2023-02-01T01:08:01.076Z,23.76
2023-02-01T01:10:28.632Z,23.45
2023-02-01T01:12:56.305Z,23.75
2023-02-01T01:15:23.931Z,23.19
2023-02-01T01:17:51.458Z,23.45
2023-02-01T01:20:20.800Z,23.45
2023-02-01T01:22:48.799Z,23.24
2023-02-01T01:25:16.588Z,23.22
2023-02-01T01:27:44.070Z,23.56
2023-02-01T01:30:12.392Z,23.02
2023-02-01T01:32:39.937Z,23.37
2023-02-01T01:35:08.064Z,23.38
2023-02-01T01:37:37.054Z,23.25
2023-02-01T01:40:05.631Z,23.40
2023-02-01T01:42:38.826Z,23.03
2023-02-01T01:45:08.698Z,23.00
2023-02-01T01:47:41.376Z,23.57
2023-02-01T01:50:11.797Z,23.35
2023-02-01T01:52:42.545Z,23.14
2023-02-01T01:55:11.000Z,23.49
2023-02-01T01:57:43.356Z,23.29
2023-02-01T02:00:14.233Z,23.44
2023-02-01T02:02:44.208Z,23.34
2023-02-01T02:05:12.904Z,23.21
2023-02-01T02:07:46.525Z,23.02
2023-02-01T02:10:15.992Z,23.09
2023-02-01T02:12:45.313Z,22.55
2023-02-01T02:15:15.450Z,23.02
2023-02-01T02:17:49.740Z,23.04
2023-02-01T02:20:46.928Z,22.72
2023-02-01T02:23:36.399Z,23.49
2023-02-01T02:26:38.389Z,22.70
2023-02-01T02:29:30.779Z,23.15
2023-02-01T02:32:19.463Z,22.36
2023-02-01T02:34:54.485Z,22.85
2023-02-01T02:37:33.527Z,23.18
2023-02-01T02:40:08.387Z,23.40
2023-02-01T02:42:43.478Z,23.03
2023-02-01T02:45:19.271Z,22.94
2023-02-01T02:47:55.632Z,22.93
2023-02-01T02:50:30.585Z,22.49
2023-02-01T02:53:10.994Z,22.02
2023-02-01T02:55:41.791Z,22.94
2023-02-01T02:58:13.604Z,22.91
2023-02-01T03:00:43.156Z,21.76
2023-02-01T03:03:10.689Z,23.29
2023-02-01T03:05:44.907Z,23.15
2023-02-01T03:08:15.217Z,23.28
2023-02-01T03:10:49.859Z,22.73
2023-02-01T03:13:25.616Z,23.14
2023-02-01T03:16:03.435Z,22.86
2023-02-01T03:18:41.957Z,22.22
2023-02-01T03:21:14.987Z,22.96
2023-02-01T03:23:46.072Z,23.21
2023-02-01T03:26:15.978Z,23.26
2023-02-01T03:28:47.606Z,22.49
2023-02-01T03:31:15.274Z,22.91
2023-02-01T03:33:43.557Z,22.85
2023-02-01T03:36:21.681Z,22.71
2023-02-01T03:38:56.754Z,22.92
2023-02-01T03:41:29.768Z,22.97
2023-02-01T03:44:04.118Z,23.23
2023-02-01T03:46:35.557Z,22.84
2023-02-01T03:49:10.084Z,23.00
2023-02-01T03:51:42.070Z,23.47
2023-02-01T03:54:14.856Z,23.30
2023-02-01T03:56:45.778Z,23.43
2023-02-01T03:59:14.483Z,23.39
2023-02-01T04:01:42.872Z,23.58
2023-02-01T04:04:10.629Z,23.50
2023-02-01T04:06:41.439Z,23.41
2023-02-01T04:09:09.192Z,22.79
2023-02-01T04:11:36.691Z,23.19
2023-02-01T04:14:04.271Z,23.05
2023-02-01T04:16:32.321Z,22.74
2023-02-01T04:19:00.424Z,22.97
2023-02-01T04:21:28.839Z,23.15
2023-02-01T04:23:58.192Z,22.44
2023-02-01T04:26:26.174Z,23.23
2023-02-01T04:28:54.464Z,23.31
2023-02-01T04:31:22.380Z,22.83
2023-02-01T04:33:50.042Z,22.66
2023-02-01T04:36:18.070Z,22.68
2023-02-01T04:38:45.962Z,21.47
2023-02-01T04:41:14.958Z,20.08
2023-02-01T04:43:43.043Z,21.34
2023-02-01T04:46:10.616Z,20.54
2023-02-01T04:48:38.216Z,21.42
2023-02-01T04:51:05.938Z,21.80
2023-02-01T04:53:33.440Z,20.51
2023-02-01T04:56:01.501Z,21.25
2023-02-01T04:58:30.552Z,21.51
2023-02-01T05:00:59.199Z,21.51
2023-02-01T05:03:26.896Z,21.83
2023-02-01T05:05:54.864Z,20.73
2023-02-01T05:08:22.359Z,20.79
2023-02-01T05:10:49.854Z,21.35
2023-02-01T05:13:17.670Z,20.45
2023-02-01T05:15:47.059Z,21.63
2023-02-01T05:18:14.536Z,19.85
2023-02-01T05:20:42.140Z,20.26
2023-02-01T05:23:09.749Z,19.79
2023-02-01T05:25:37.373Z,20.57
2023-02-01T05:28:05.252Z,20.53
2023-02-01T05:30:33.434Z,20.65
2023-02-01T05:33:03.043Z,20.35
2023-02-01T05:35:30.994Z,20.85
2023-02-01T05:37:58.563Z,20.26
2023-02-01T05:40:26.386Z,19.88
2023-02-01T05:42:53.984Z,18.31
2023-02-01T05:45:21.426Z,19.26
2023-02-01T05:47:49.087Z,19.15
2023-02-01T05:50:18.283Z,20.12
2023-02-01T05:52:46.201Z,20.01
2023-02-01T05:55:16.929Z,19.41
2023-02-01T05:57:45.135Z,19.33
2023-02-01T06:00:14.389Z,19.54
2023-02-01T06:02:42.965Z,19.57
2023-02-01T06:05:10.842Z,19.40
2023-02-01T06:07:40.058Z,19.60
2023-02-01T06:10:08.517Z,19.79
2023-02-01T06:12:36.266Z,19.50
2023-02-01T06:15:04.141Z,19.52
2023-02-01T06:17:32.018Z,20.25
2023-02-01T06:19:59.712Z,19.98
2023-02-01T06:22:27.822Z,19.60
2023-02-01T06:24:57.295Z,19.70
2023-02-01T06:27:24.952Z,20.35
2023-02-01T06:29:52.729Z,20.83
2023-02-01T06:32:21.490Z,19.99
2023-02-01T06:34:49.130Z,19.74
2023-02-01T06:37:17.396Z,20.41
2023-02-01T06:39:44.996Z,21.20
2023-02-01T06:42:14.227Z,20.34
2023-02-01T06:44:42.841Z,21.50
2023-02-01T06:47:10.753Z,20.15
2023-02-01T06:49:38.400Z,19.85
2023-02-01T06:52:06.066Z,19.73
2023-02-01T06:54:33.757Z,20.57
2023-02-01T06:57:01.484Z,20.30
2023-02-01T06:59:30.910Z,21.37
2023-02-01T07:01:59.184Z,21.02
2023-02-01T07:04:27.394Z,20.72
2023-02-01T07:06:55.094Z,19.75
2023-02-01T07:09:23.009Z,20.31
2023-02-01T07:11:50.888Z,20.37
2023-02-01T07:14:18.623Z,20.23
2023-02-01T07:16:47.755Z,20.29
2023-02-01T07:19:15.530Z,20.78
2023-02-01T07:21:43.363Z,20.41
2023-02-01T07:24:11.006Z,20.55
2023-02-01T07:26:38.604Z,20.70
2023-02-01T07:29:06.451Z,20.69
2023-02-01T07:31:34.631Z,20.89
2023-02-01T07:34:03.722Z,20.76
2023-02-01T07:36:31.499Z,20.35
2023-02-01T07:39:00.156Z,20.82
2023-02-01T07:41:27.981Z,20.13
2023-02-01T07:43:56.679Z,20.09
2023-02-01T07:46:25.040Z,19.96
2023-02-01T07:48:52.552Z,20.81
2023-02-01T07:51:22.078Z,21.10
2023-02-01T07:53:49.853Z,20.70
2023-02-01T07:56:19.124Z,20.86
2023-02-01T07:58:48.548Z,19.99
2023-02-01T08:01:17.457Z,20.38
2023-02-01T08:03:45.243Z,20.78
2023-02-01T08:06:13.050Z,20.89
2023-02-01T08:08:42.123Z,20.74
2023-02-01T08:11:10.680Z,20.21
2023-02-01T08:13:39.041Z,19.38
2023-02-01T08:16:09.104Z,19.84
2023-02-01T08:18:39.363Z,19.68
2023-02-01T08:21:09.693Z,19.73
2023-02-01T08:23:39.672Z,20.44
2023-02-01T08:26:11.428Z,20.40
2023-02-01T08:28:41.007Z,19.75
2023-02-01T08:31:11.062Z,20.36
2023-02-01T08:33:38.984Z,19.98
2023-02-01T08:36:10.932Z,20.56
2023-02-01T08:38:40.336Z,19.76
2023-02-01T08:41:11.567Z,20.10
2023-02-01T08:43:39.971Z,19.63
2023-02-01T08:46:08.478Z,20.65
2023-02-01T08:48:36.731Z,20.20
2023-02-01T08:51:06.108Z,20.94
2023-02-01T08:53:34.742Z,20.38
2023-02-01T08:56:02.300Z,19.38
2023-02-01T08:58:32.759Z,20.24
2023-02-01T09:01:04.796Z,20.58
2023-02-01T09:03:32.786Z,20.67
2023-02-01T09:06:03.908Z,21.12
2023-02-01T09:08:32.074Z,20.07
2023-02-01T09:11:03.629Z,20.21
2023-02-01T09:13:33.980Z,20.59
2023-02-01T09:16:02.100Z,20.56
2023-02-01T09:18:30.392Z,20.21
2023-02-01T09:20:58.050Z,20.52
2023-02-01T09:23:26.320Z,20.34
2023-02-01T09:25:54.364Z,19.88
2023-02-01T09:28:43.380Z,20.09
2023-02-01T09:31:27.793Z,20.38
2023-02-01T09:33:55.415Z,20.64
2023-02-01T09:36:23.151Z,20.34
2023-02-01T09:39:11.322Z,20.74
2023-02-01T09:41:50.338Z,20.44
2023-02-01T09:44:44.085Z,20.46
2023-02-01T09:47:17.005Z,20.96
2023-02-01T09:49:55.086Z,20.74
2023-02-01T09:52:31.161Z,21.22
2023-02-01T09:55:03.828Z,20.63
2023-02-01T09:57:45.356Z,20.79
2023-02-01T10:00:22.300Z,20.89
2023-02-01T10:02:52.536Z,20.92
2023-02-01T10:05:46.819Z,20.67
2023-02-01T10:08:26.085Z,20.53
2023-02-01T10:10:55.293Z,20.41
2023-02-01T10:13:45.201Z,20.05
2023-02-01T10:16:33.099Z,20.05
2023-02-01T10:19:30.781Z,19.88
2023-02-01T10:22:02.486Z,20.65
2023-02-01T10:24:40.978Z,21.03
2023-02-01T10:27:15.545Z,20.64
2023-02-01T10:29:46.373Z,21.15
2023-02-01T10:32:17.062Z,22.24
2023-02-01T10:34:53.140Z,22.11
2023-02-01T10:37:28.948Z,22.83
2023-02-01T10:39:59.015Z,23.88
2023-02-01T10:42:30.323Z,22.68
2023-02-01T10:45:02.948Z,21.89
2023-02-01T10:47:31.489Z,21.97
2023-02-01T10:50:13.840Z,21.79
2023-02-01T10:52:46.415Z,21.09
2023-02-01T10:55:48.969Z,21.73
2023-02-01T10:58:18.918Z,21.03
2023-02-01T11:00:54.445Z,20.43
2023-02-01T11:03:42.016Z,21.89
2023-02-01T11:06:21.353Z,21.76
2023-02-01T11:08:51.004Z,21.50
2023-02-01T11:11:20.539Z,22.14
2023-02-01T11:13:58.612Z,22.47
2023-02-01T11:16:38.058Z,21.23
2023-02-01T11:19:06.587Z,22.37
2023-02-01T11:21:36.808Z,21.26
2023-02-01T11:24:07.160Z,21.57
2023-02-01T11:26:34.876Z,21.79
2023-02-01T11:29:05.770Z,22.03
2023-02-01T11:31:36.363Z,21.47
2023-02-01T11:34:09.551Z,21.66
2023-02-01T11:36:41.832Z,21.28
2023-02-01T11:39:19.316Z,20.67
2023-02-01T11:42:00.402Z,21.33
2023-02-01T11:44:36.578Z,20.79
2023-02-01T11:47:24.747Z,21.38
2023-02-01T11:49:54.259Z,20.87
2023-02-01T11:52:43.200Z,20.69
2023-02-01T11:55:36.480Z,21.47
2023-02-01T11:58:16.618Z,21.52
2023-02-01T12:01:07.377Z,21.10
2023-02-01T12:04:01.524Z,21.63
2023-02-01T12:06:39.556Z,22.01
2023-02-01T12:09:24.532Z,21.57
2023-02-01T12:12:02.136Z,22.25
2023-02-01T12:14:52.431Z,22.06
2023-02-01T12:17:50.556Z,22.32
2023-02-01T12:20:35.571Z,22.32
2023-02-01T12:23:19.088Z,22.11
2023-02-01T12:26:06.696Z,21.73
2023-02-01T12:28:56.431Z,22.14
2023-02-01T12:31:47.242Z,21.44
2023-02-01T12:34:40.051Z,21.58
2023-02-01T12:37:19.820Z,21.68
2023-02-01T12:39:57.799Z,21.47
2023-02-01T12:42:30.587Z,21.37
2023-02-01T12:45:05.311Z,21.40
2023-02-01T12:47:39.429Z,21.60
2023-02-01T12:50:14.398Z,21.09
2023-02-01T12:52:49.177Z,21.17
2023-02-01T12:55:22.159Z,22.17
2023-02-01T12:57:55.710Z,21.68
2023-02-01T13:00:32.448Z,21.79
2023-02-01T13:03:07.323Z,22.32
2023-02-01T13:05:45.675Z,22.29
2023-02-01T13:08:18.832Z,22.14
2023-02-01T13:10:50.183Z,22.16
2023-02-01T13:13:28.227Z,22.10
2023-02-01T13:16:02.852Z,22.04
2023-02-01T13:18:38.877Z,21.87
2023-02-01T13:21:11.380Z,22.42
2023-02-01T13:23:40.962Z,22.30
2023-02-01T13:26:08.712Z,21.99
2023-02-01T13:28:45.658Z,22.49
2023-02-01T13:31:52.079Z,22.43
2023-02-01T13:34:50.437Z,22.04
2023-02-01T13:37:31.759Z,22.43
2023-02-01T13:40:19.202Z,22.13
2023-02-01T13:42:52.503Z,22.29
2023-02-01T13:45:25.201Z,22.34
2023-02-01T13:47:56.567Z,22.42
2023-02-01T13:50:29.157Z,22.53
2023-02-01T13:53:00.210Z,23.21
2023-02-01T13:55:34.276Z,22.64
2023-02-01T13:58:17.190Z,22.68
2023-02-01T14:00:48.121Z,22.65
2023-02-01T14:03:22.347Z,22.17
2023-02-01T14:06:04.740Z,22.31
2023-02-01T14:08:45.417Z,22.63
2023-02-01T14:11:34.793Z,22.52
2023-02-01T14:14:27.419Z,22.31
2023-02-01T14:17:36.150Z,22.42
2023-02-01T14:20:44.658Z,22.32
2023-02-01T14:23:42.536Z,21.71
2023-02-01T14:26:14.416Z,22.05
2023-02-01T14:28:45.997Z,22.76
2023-02-01T14:31:27.188Z,22.03
2023-02-01T14:33:59.907Z,22.46
2023-02-01T14:36:39.888Z,22.20
2023-02-01T14:39:21.721Z,22.07
2023-02-01T14:41:59.953Z,22.29
2023-02-01T14:44:34.133Z,22.99
2023-02-01T14:47:10.941Z,22.26
2023-02-01T14:49:44.571Z,22.26
2023-02-01T14:52:17.361Z,22.50
2023-02-01T14:54:52.386Z,22.72
2023-02-01T14:57:24.476Z,22.56
2023-02-01T15:00:01.105Z,22.45
2023-02-01T15:02:30.364Z,22.67
2023-02-01T15:04:58.875Z,22.40
2023-02-01T15:07:28.239Z,22.33
2023-02-01T15:09:59.851Z,22.79
2023-02-01T15:12:29.675Z,22.52
2023-02-01T15:15:12.741Z,22.34
2023-02-01T15:17:41.701Z,22.55
2023-02-01T15:20:17.169Z,22.63
2023-02-01T15:22:55.928Z,22.39
2023-02-01T15:25:27.363Z,21.71
2023-02-01T15:27:56.308Z,22.17
2023-02-01T15:30:27.376Z,22.38
2023-02-01T15:33:07.625Z,22.18
2023-02-01T15:35:41.774Z,22.23
2023-02-01T15:38:37.118Z,22.06
2023-02-01T15:41:10.859Z,22.40
2023-02-01T15:43:41.044Z,22.14
2023-02-01T15:46:12.069Z,22.53
2023-02-01T15:48:45.144Z,22.39
2023-02-01T15:51:19.647Z,22.59
2023-02-01T15:53:54.634Z,22.34
2023-02-01T15:56:26.924Z,22.44
2023-02-01T15:58:59.209Z,22.34
2023-02-01T16:01:27.329Z,22.32
2023-02-01T16:04:15.227Z,22.23
2023-02-01T16:06:48.655Z,22.55
2023-02-01T16:09:17.954Z,22.37
2023-02-01T16:11:55.899Z,22.63
2023-02-01T16:14:29.381Z,22.65
2023-02-01T16:17:00.170Z,22.85
2023-02-01T16:19:28.415Z,22.42
2023-02-01T16:21:56.890Z,22.42
2023-02-01T16:24:25.015Z,22.55
2023-02-01T16:26:54.662Z,22.11
2023-02-01T16:29:22.545Z,22.26
2023-02-01T16:31:50.870Z,22.34
2023-02-01T16:34:23.425Z,22.64
2023-02-01T16:36:53.060Z,22.54
2023-02-01T16:39:23.570Z,22.16
2023-02-01T16:42:00.635Z,22.34
2023-02-01T16:44:29.829Z,22.31
2023-02-01T16:46:57.601Z,22.31
2023-02-01T16:49:26.464Z,22.25
2023-02-01T16:51:58.115Z,22.18
2023-02-01T16:54:25.813Z,22.67
2023-02-01T16:56:55.594Z,22.29
2023-02-01T16:59:26.270Z,22.36
2023-02-01T17:01:56.655Z,22.27
2023-02-01T17:04:28.560Z,22.70
2023-02-01T17:06:58.124Z,22.20
2023-02-01T17:09:26.486Z,21.98
2023-02-01T17:11:55.853Z,22.42
2023-02-01T17:14:23.913Z,22.70
2023-02-01T17:16:52.601Z,22.50
2023-02-01T17:19:24.127Z,22.43
2023-02-01T17:21:54.393Z,22.39
2023-02-01T17:24:25.916Z,22.13
2023-02-01T17:26:56.676Z,22.39
2023-02-01T17:29:25.281Z,22.46
2023-02-01T17:31:55.531Z,22.87
2023-02-01T17:34:24.216Z,22.44
2023-02-01T17:36:53.102Z,22.50
2023-02-01T17:39:21.171Z,22.47
2023-02-01T17:41:50.268Z,22.37
2023-02-01T17:44:20.133Z,22.64
2023-02-01T17:46:48.123Z,22.87
2023-02-01T17:49:16.395Z,22.30
2023-02-01T17:51:45.054Z,22.31
2023-02-01T17:54:14.374Z,22.36
2023-02-01T17:56:41.991Z,21.91
2023-02-01T17:59:10.306Z,22.40
2023-02-01T18:01:39.785Z,22.96
2023-02-01T18:04:10.596Z,22.77
2023-02-01T18:06:38.784Z,22.43
2023-02-01T18:09:06.702Z,22.39
2023-02-01T18:11:34.591Z,22.59
2023-02-01T18:14:03.965Z,22.40
2023-02-01T18:16:33.445Z,22.60
2023-02-01T18:19:03.007Z,22.96
2023-02-01T18:21:33.397Z,22.33
2023-02-01T18:24:01.741Z,22.65
2023-02-01T18:26:29.962Z,22.12
2023-02-01T18:28:57.655Z,22.51
2023-02-01T18:31:27.676Z,22.62
2023-02-01T18:33:57.514Z,22.92
2023-02-01T18:36:26.337Z,22.30
2023-02-01T18:38:54.439Z,22.14
2023-02-01T18:41:23.746Z,22.75
2023-02-01T18:43:52.852Z,22.77
2023-02-01T18:46:21.028Z,22.89
2023-02-01T18:48:49.009Z,22.47
2023-02-01T18:51:19.218Z,22.25
2023-02-01T18:53:48.926Z,22.71
2023-02-01T18:56:17.823Z,22.65
2023-02-01T18:58:46.125Z,22.50
2023-02-01T19:01:16.469Z,22.79
2023-02-01T19:03:45.372Z,22.81
2023-02-01T19:06:15.233Z,22.38
2023-02-01T19:08:45.631Z,22.85
2023-02-01T19:11:14.637Z,22.72
2023-02-01T19:13:42.310Z,22.72
2023-02-01T19:16:11.358Z,22.94
2023-02-01T19:18:39.071Z,22.70
2023-02-01T19:21:09.388Z,22.59
2023-02-01T19:23:38.923Z,22.52
2023-02-01T19:26:11.327Z,22.64
2023-02-01T19:28:40.622Z,22.60
2023-02-01T19:31:09.360Z,22.67
2023-02-01T19:33:37.238Z,22.73
2023-02-01T19:36:07.028Z,22.02
2023-02-01T19:38:34.642Z,22.58
2023-02-01T19:41:02.434Z,21.92
2023-02-01T19:43:30.663Z,22.50
2023-02-01T19:45:59.803Z,22.90
2023-02-01T19:48:28.648Z,23.27
2023-02-01T19:50:56.777Z,22.91
2023-02-01T19:53:24.949Z,22.51
2023-02-01T19:55:54.967Z,22.85
2023-02-01T19:58:23.429Z,22.43
2023-02-01T20:00:52.820Z,22.98
2023-02-01T20:03:22.227Z,22.96
2023-02-01T20:05:51.383Z,22.28
2023-02-01T20:08:18.974Z,22.54
2023-02-01T20:10:46.823Z,22.02
2023-02-01T20:13:15.007Z,22.68
2023-02-01T20:15:42.579Z,22.68
2023-02-01T20:18:11.205Z,21.96
2023-02-01T20:20:41.129Z,22.11
2023-02-01T20:23:08.703Z,22.56
2023-02-01T20:25:37.835Z,22.39
2023-02-01T20:28:05.802Z,22.56
2023-02-01T20:30:33.381Z,23.05
2023-02-01T20:33:00.910Z,22.30
2023-02-01T20:35:28.490Z,22.85
2023-02-01T20:37:57.491Z,22.02
2023-02-01T20:40:25.055Z,22.62
2023-02-01T20:42:52.527Z,22.43
2023-02-01T20:45:20.443Z,21.79
2023-02-01T20:47:50.178Z,22.63
2023-02-01T20:50:18.315Z,22.66
2023-02-01T20:52:45.824Z,22.48
2023-02-01T20:55:14.875Z,22.55
2023-02-01T20:57:42.639Z,22.44
2023-02-01T21:00:11.662Z,22.15
2023-02-01T21:02:39.787Z,22.21
2023-02-01T21:05:08.439Z,22.03
2023-02-01T21:07:36.896Z,22.17
2023-02-01T21:10:05.174Z,21.62
2023-02-01T21:12:34.241Z,22.44
2023-02-01T21:15:01.840Z,22.19
2023-02-01T21:17:31.001Z,22.03
2023-02-01T21:19:58.636Z,22.24
2023-02-01T21:22:26.538Z,22.37
2023-02-01T21:24:54.151Z,22.48
2023-02-01T21:27:22.309Z,22.83
2023-02-01T21:29:51.280Z,22.20
2023-02-01T21:32:18.912Z,22.33
2023-02-01T21:34:46.972Z,22.16
2023-02-01T21:37:14.568Z,22.35
2023-02-01T21:39:42.159Z,22.74
2023-02-01T21:42:10.798Z,22.55
2023-02-01T21:44:38.354Z,22.62
2023-02-01T21:47:07.415Z,22.17
2023-02-01T21:49:36.889Z,22.30
2023-02-01T21:52:05.306Z,22.68
2023-02-01T21:54:33.345Z,22.51
2023-02-01T21:57:00.886Z,22.70
2023-02-01T21:59:29.006Z,22.60
2023-02-01T22:01:56.641Z,22.30
2023-02-01T22:04:25.646Z,22.68
2023-02-01T22:06:53.265Z,22.97
2023-02-01T22:09:23.089Z,22.42
2023-02-01T22:11:52.535Z,22.88
2023-02-01T22:14:20.660Z,22.90
2023-02-01T22:16:48.529Z,22.70
2023-02-01T22:19:16.258Z,22.75
2023-02-01T22:21:46.993Z,22.90
2023-02-01T22:24:16.650Z,22.38
2023-02-01T22:26:44.029Z,23.03
2023-02-01T22:29:12.064Z,23.05
2023-02-01T22:31:40.242Z,22.75
2023-02-01T22:34:09.572Z,22.94
2023-02-01T22:36:37.396Z,23.13
2023-02-01T22:39:06.518Z,23.02
2023-02-01T22:41:34.196Z,22.40
2023-02-01T22:44:01.814Z,22.89
2023-02-01T22:46:29.959Z,22.51
2023-02-01T22:48:58.102Z,22.60
2023-02-01T22:51:28.229Z,22.90
2023-02-01T22:53:56.220Z,22.47
2023-02-01T22:56:25.843Z,22.82
2023-02-01T22:58:56.698Z,22.79
2023-02-01T23:01:24.814Z,22.31
2023-02-01T23:03:55.826Z,22.57
2023-02-01T23:06:23.489Z,22.61
2023-02-01T23:08:55.002Z,22.58
2023-02-01T23:11:24.878Z,22.61
2023-02-01T23:13:52.530Z,23.15
2023-02-01T23:16:20.551Z,22.75
2023-02-01T23:18:48.176Z,21.87
2023-02-01T23:21:17.709Z,22.49
2023-02-01T23:23:47.138Z,22.48
2023-02-01T23:26:15.180Z,21.81
2023-02-01T23:28:44.997Z,22.48
2023-02-01T23:31:14.576Z,22.66
2023-02-01T23:33:43.967Z,22.22
2023-02-01T23:36:13.727Z,22.99
2023-02-01T23:38:41.217Z,22.84
2023-02-01T23:41:10.233Z,22.63
2023-02-01T23:43:37.862Z,22.65
2023-02-01T23:46:06.898Z,22.72
2023-02-01T23:48:34.381Z,22.01
2023-02-01T23:51:02.263Z,22.80
2023-02-01T23:53:30.410Z,22.81
2023-02-01T23:55:57.929Z,22.22
2023-02-01T23:58:25.374Z,22.53
